Time;durP1;ratioP1;P1;durP2;ratioP2;P2;SDS_P1;SDS_P2;PMS_P1;PMS_P2;Temp;Humidity;BMP_temperature;BMP_pressure;BME280_temperature;BME280_humidity;BME280_pressure;Samples;Min_cycle;Max_cycle;Signal;HPM_P1;HPM_P2
2022/05/21 00:01:59;;;;;;;0.40;0.20;;;;;;;16.12;68.06;95808.66;5114225;28;20419;-52
2022/05/21 00:04:28;;;;;;;0.40;0.20;;;;;;;16.08;68.79;95802.31;5114624;28;20484;-52
2022/05/21 00:06:56;;;;;;;0.40;0.20;;;;;;;16.14;67.78;95800.34;5114957;28;20420;-52
2022/05/21 00:09:27;;;;;;;0.40;0.30;;;;;;;15.85;68.27;95768.44;5114354;28;20467;-52
2022/05/21 00:11:56;;;;;;;0.40;0.20;;;;;;;16.15;67.94;95805.38;5114803;28;20999;-52
2022/05/21 00:14:25;;;;;;;0.40;0.20;;;;;;;16.27;67.31;95813.75;5114732;28;20834;-52
2022/05/21 00:16:53;;;;;;;0.40;0.20;;;;;;;16.13;68.85;95796.88;5114117;28;20832;-50
2022/05/21 00:19:21;;;;;;;0.40;0.30;;;;;;;16.01;71.32;95796.53;5114346;28;20420;-50
2022/05/21 00:21:54;;;;;;;0.40;0.20;;;;;;;16.11;70.72;95808.94;5113996;28;20846;-50
2022/05/21 00:24:30;;;;;;;0.40;0.20;;;;;;;16.06;70.41;95809.03;5113866;28;20436;-50
2022/05/21 00:26:59;;;;;;;0.40;0.20;;;;;;;16.10;70.51;95804.69;5114243;28;20431;-50
2022/05/21 00:29:28;;;;;;;0.40;0.20;;;;;;;16.11;70.83;95801.72;5114184;28;20482;-50
2022/05/21 00:31:57;;;;;;;0.40;0.20;;;;;;;16.04;69.90;95793.25;5114079;28;20462;-50
2022/05/21 00:34:25;;;;;;;0.40;0.20;;;;;;;16.05;70.70;95796.72;5114125;28;20478;-50
2022/05/21 00:36:53;;;;;;;0.40;0.20;;;;;;;15.99;71.30;95797.91;5114007;28;20538;-50
2022/05/21 00:39:22;;;;;;;0.40;0.20;;;;;;;15.88;72.37;95781.22;5113100;28;20793;-50
2022/05/21 00:41:52;;;;;;;0.40;0.20;;;;;;;15.84;71.10;95780.22;5113981;28;20506;-50
2022/05/21 00:44:20;;;;;;;0.50;0.30;;;;;;;15.82;72.05;95782.38;5114079;28;20427;-50
2022/05/21 00:46:49;;;;;;;0.40;0.20;;;;;;;15.79;71.85;95783.75;5113268;28;20420;-50
2022/05/21 00:49:22;;;;;;;0.40;0.20;;;;;;;15.79;72.42;95786.44;5113589;28;20431;-50
2022/05/21 00:51:53;;;;;;;0.40;0.20;;;;;;;15.76;73.92;95788.91;5113737;28;20424;-50
2022/05/21 00:54:25;;;;;;;0.40;0.20;;;;;;;15.72;74.44;95801.25;5113801;28;20424;-50
2022/05/21 00:56:58;;;;;;;0.40;0.20;;;;;;;15.76;73.69;95795.03;5113988;28;20503;-50
2022/05/21 01:02:28;;;;;;;0.40;0.30;;;;;;;15.68;73.53;95802.91;5088335;28;20529;-50
2022/05/21 01:04:57;;;;;;;0.40;0.33;;;;;;;15.73;73.82;95794.81;5113140;28;20434;-50
2022/05/21 01:07:26;;;;;;;0.40;0.20;;;;;;;15.55;74.48;95793.75;5113112;28;20465;-50
2022/05/21 01:09:56;;;;;;;0.40;0.20;;;;;;;15.64;74.16;95788.53;5113624;28;20432;-50
2022/05/21 01:12:29;;;;;;;0.40;0.20;;;;;;;15.54;74.31;95789.47;5113538;28;20424;-50
2022/05/21 01:15:01;;;;;;;0.40;0.30;;;;;;;15.58;73.26;95787.03;5111981;28;20492;-49
2022/05/21 01:17:30;;;;;;;0.40;0.20;;;;;;;15.63;74.57;95786.94;5113175;28;20890;-50
2022/05/21 01:20:02;;;;;;;0.40;0.20;;;;;;;15.58;73.95;95789.69;5112190;28;20514;-50
2022/05/21 01:22:33;;;;;;;0.40;0.20;;;;;;;15.51;74.70;95787.38;5113172;28;20925;-50
2022/05/21 01:25:01;;;;;;;0.40;0.20;;;;;;;15.51;75.18;95783.91;5113028;28;20427;-50
2022/05/21 01:27:30;;;;;;;0.40;0.20;;;;;;;15.45;73.81;95783.19;5113014;28;20432;-49
2022/05/21 01:30:00;;;;;;;0.40;0.20;;;;;;;15.41;74.67;95776.00;5112938;28;20468;-49
2022/05/21 01:32:29;;;;;;;0.40;0.20;;;;;;;15.25;74.95;95757.50;5113519;28;20419;-50
2022/05/21 01:34:58;;;;;;;0.40;0.20;;;;;;;15.23;77.58;95773.03;5113135;28;20423;-49
2022/05/21 01:37:26;;;;;;;0.40;0.30;;;;;;;15.22;78.51;95774.13;5112770;28;20977;-49
2022/05/21 01:39:56;;;;;;;0.40;0.20;;;;;;;15.09;80.87;95779.34;5112811;28;20484;-50
2022/05/21 01:42:25;;;;;;;0.40;0.30;;;;;;;14.87;84.25;95782.56;5112823;28;20998;-50
2022/05/21 01:44:52;;;;;;;0.40;0.20;;;;;;;14.44;91.93;95780.88;5112948;28;20458;-49
2022/05/21 01:47:21;;;;;;;0.40;0.30;;;;;;;13.30;100.00;95715.69;5112965;28;20419;-49
2022/05/21 01:49:51;;;;;;;0.60;0.53;;;;;;;13.74;100.00;95780.34;5112662;28;20423;-49
2022/05/21 01:52:20;;;;;;;0.50;0.40;;;;;;;14.16;97.32;95765.66;5112948;27;20427;-49
2022/05/21 01:54:49;;;;;;;0.40;0.20;;;;;;;13.18;100.00;95715.25;5112587;28;20432;-49
2022/05/21 01:57:19;;;;;;;0.60;0.30;;;;;;;13.55;100.00;95782.09;5111865;28;20952;-50
2022/05/21 01:59:47;;;;;;;0.40;0.20;;;;;;;13.94;100.00;95782.88;5112589;28;20419;-49
2022/05/21 02:02:16;;;;;;;0.40;0.30;;;;;;;14.20;98.34;95782.66;5112449;28;20975;-49
2022/05/21 02:04:44;;;;;;;0.60;0.60;;;;;;;14.47;94.85;95775.00;5111920;28;20975;-49
2022/05/21 02:07:13;;;;;;;0.60;0.60;;;;;;;14.25;96.28;95747.94;5112312;28;20513;-49
2022/05/21 02:09:41;;;;;;;0.40;0.20;;;;;;;14.17;95.05;95754.69;5112357;28;20419;-49
2022/05/21 02:12:14;;;;;;;0.50;0.30;;;;;;;14.30;94.32;95761.25;5112308;28;20455;-49
2022/05/21 02:14:44;;;;;;;0.70;0.53;;;;;;;14.37;93.48;95772.44;5112639;28;20424;-49
2022/05/21 02:17:15;;;;;;;0.43;0.33;;;;;;;14.35;93.38;95774.56;5112207;28;20478;-50
2022/05/21 02:19:43;;;;;;;0.40;0.20;;;;;;;14.33;93.92;95766.84;5112263;28;20442;-49
2022/05/21 02:22:11;;;;;;;0.50;0.40;;;;;;;14.35;94.35;95775.34;5112801;28;20504;-49
2022/05/21 02:24:40;;;;;;;1.10;0.30;;;;;;;14.40;93.43;95782.50;5111730;28;20463;-50
2022/05/21 02:27:09;;;;;;;0.40;0.20;;;;;;;14.46;93.17;95781.38;5112064;28;20420;-49
2022/05/21 02:29:38;;;;;;;0.43;0.30;;;;;;;14.40;93.23;95772.63;5112093;28;20432;-49
2022/05/21 02:32:12;;;;;;;0.40;0.20;;;;;;;14.31;91.92;95762.88;5112154;28;20470;-50
2022/05/21 02:34:41;;;;;;;0.40;0.30;;;;;;;13.17;91.59;95575.25;5111425;28;20484;-50
2022/05/21 02:39:55;;;;;;;0.50;0.30;;;;;;;14.51;90.82;95776.00;5112322;28;20449;-50
2022/05/21 02:45:13;;;;;;;0.40;0.30;;;;;;;14.47;90.08;95777.66;5112256;28;20821;-50
2022/05/21 02:47:43;;;;;;;0.40;0.30;;;;;;;14.45;90.58;95775.25;5112013;28;20415;-50
2022/05/21 02:50:14;;;;;;;0.50;0.50;;;;;;;14.37;90.71;95757.19;5112233;28;20499;-49
2022/05/21 02:52:43;;;;;;;0.50;0.50;;;;;;;14.43;90.40;95771.28;5112194;28;20507;-49
2022/05/21 02:55:14;;;;;;;0.43;0.27;;;;;;;14.21;90.64;95762.94;5112004;28;20506;-49
2022/05/21 02:57:43;;;;;;;0.40;0.30;;;;;;;14.26;89.27;95765.56;5111759;28;20467;-50
2022/05/21 03:00:14;;;;;;;0.40;0.20;;;;;;;13.92;92.07;95770.91;5111872;28;20455;-50
2022/05/21 03:02:44;;;;;;;2.10;0.40;;;;;;;13.65;92.67;95707.44;5112112;28;20491;-49
2022/05/21 03:05:13;;;;;;;0.40;0.30;;;;;;;14.03;92.92;95769.75;5111865;28;20412;-49
2022/05/21 03:07:43;;;;;;;0.40;0.20;;;;;;;14.07;92.90;95777.97;5112067;28;20459;-50
2022/05/21 03:10:20;;;;;;;0.40;0.20;;;;;;;14.16;92.55;95770.97;5111766;28;20427;-49
2022/05/21 03:12:51;;;;;;;0.40;0.20;;;;;;;14.08;92.46;95785.72;5112018;28;20450;-50
2022/05/21 03:15:21;;;;;;;1.87;0.33;;;;;;;13.95;93.21;95786.34;5112324;28;20473;-49
2022/05/21 03:17:51;;;;;;;0.40;0.20;;;;;;;14.08;92.63;95784.91;5111646;28;20489;-49
2022/05/21 03:20:21;;;;;;;0.40;0.20;;;;;;;14.09;91.80;95778.50;5112158;28;20455;-49
2022/05/21 03:22:50;;;;;;;0.40;0.30;;;;;;;14.17;91.17;95775.22;5111213;28;20447;-50
2022/05/21 03:25:19;;;;;;;0.50;0.30;;;;;;;14.21;89.95;95777.06;5111575;28;21000;-49
2022/05/21 03:27:47;;;;;;;0.50;0.40;;;;;;;14.17;90.39;95765.34;5112184;28;20858;-49
2022/05/21 03:30:18;;;;;;;0.40;0.20;;;;;;;14.25;90.35;95771.94;5111906;28;20459;-49
2022/05/21 03:32:47;;;;;;;0.40;0.20;;;;;;;14.27;89.51;95772.50;5111618;28;20416;-50
2022/05/21 03:35:17;;;;;;;0.40;0.30;;;;;;;14.25;88.47;95774.63;5111341;28;20853;-49
2022/05/21 03:37:46;;;;;;;0.40;0.30;;;;;;;14.30;89.04;95771.91;5111531;28;20507;-50
2022/05/21 03:40:19;;;;;;;0.40;0.20;;;;;;;14.21;88.66;95747.75;5113593;28;20536;-50
2022/05/21 03:42:47;;;;;;;0.40;0.20;;;;;;;14.43;88.32;95771.28;5113885;28;20463;-49
2022/05/21 03:45:16;;;;;;;0.40;0.20;;;;;;;14.41;88.37;95774.25;5113836;28;20511;-49
2022/05/21 03:47:45;;;;;;;0.40;0.20;;;;;;;14.21;88.80;95747.75;5113753;28;20507;-49
2022/05/21 03:50:17;;;;;;;0.40;0.23;;;;;;;14.36;89.36;95778.81;5114072;28;20431;-49
2022/05/21 03:52:46;;;;;;;0.40;0.20;;;;;;;14.44;89.44;95780.88;5114874;28;20439;-50
2022/05/21 03:55:15;;;;;;;2.70;0.80;;;;;;;14.43;89.52;95779.28;5115131;28;20477;-50
2022/05/21 03:57:43;;;;;;;1.13;0.30;;;;;;;14.40;89.27;95777.97;5115094;28;20423;-50
2022/05/21 04:00:15;;;;;;;2.83;0.30;;;;;;;14.39;87.79;95778.25;5115177;28;20501;-49
2022/05/21 04:02:44;;;;;;;0.40;0.20;;;;;;;14.43;88.43;95780.09;5114651;28;20427;-49
2022/05/21 04:05:14;;;;;;;0.40;0.20;;;;;;;14.35;86.12;95762.03;5114700;28;20481;-49
2022/05/21 04:07:43;;;;;;;0.40;0.20;;;;;;;14.18;96.67;95792.81;5114909;28;20942;-50
2022/05/21 04:10:14;;;;;;;0.40;0.30;;;;;;;13.76;100.00;95785.44;5115115;28;20488;-50
2022/05/21 04:12:43;;;;;;;0.40;0.30;;;;;;;13.92;100.00;95773.56;5114490;28;20423;-50
2022/05/21 04:15:12;;;;;;;0.40;0.30;;;;;;;14.22;97.39;95780.53;5114396;28;20941;-50
2022/05/21 04:17:41;;;;;;;0.40;0.20;;;;;;;14.35;93.82;95786.03;5114468;28;21051;-50
2022/05/21 04:20:12;;;;;;;0.40;0.20;;;;;;;14.35;93.46;95767.34;5114242;28;20527;-50
2022/05/21 04:22:41;;;;;;;0.40;0.30;;;;;;;14.46;93.09;95774.19;5114309;28;20423;-50
2022/05/21 04:25:11;;;;;;;0.40;0.30;;;;;;;14.48;94.53;95772.03;5114192;28;20418;-50
2022/05/21 04:27:41;;;;;;;0.40;0.20;;;;;;;14.52;93.92;95764.28;5114542;28;20854;-50
2022/05/21 04:30:14;;;;;;;2.67;1.33;;;;;;;14.38;100.00;95764.13;5114370;28;20506;-50
2022/05/21 04:32:42;;;;;;;0.40;0.20;;;;;;;14.27;100.00;95759.94;5114158;28;20416;-50
2022/05/21 04:35:11;;;;;;;1.43;0.50;;;;;;;14.06;100.00;95779.88;5114279;28;20424;-50
2022/05/21 04:37:40;;;;;;;0.60;0.60;;;;;;;13.93;100.00;95775.16;5114064;28;20424;-50
2022/05/21 04:40:12;;;;;;;0.40;0.20;;;;;;;14.06;100.00;95771.88;5113846;28;20478;-50
2022/05/21 04:42:41;;;;;;;1.60;0.50;;;;;;;14.25;100.00;95763.94;5113408;28;20871;-50
2022/05/21 04:45:10;;;;;;;0.40;0.20;;;;;;;14.44;100.00;95764.88;5113417;28;20436;-50
2022/05/21 04:47:39;;;;;;;0.47;0.37;;;;;;;13.75;100.00;95773.97;5113918;27;20463;-50
2022/05/21 04:50:09;;;;;;;0.50;0.40;;;;;;;13.98;100.00;95743.94;5113697;28;20986;-50
2022/05/21 04:52:38;;;;;;;0.40;0.30;;;;;;;14.11;100.00;95742.50;5113905;28;20419;-50
2022/05/21 04:55:09;;;;;;;0.40;0.30;;;;;;;14.63;96.23;95765.75;5114009;28;20424;-50
2022/05/21 04:57:39;;;;;;;0.50;0.43;;;;;;;13.95;100.00;95749.84;5113592;28;20982;-50
2022/05/21 05:00:09;;;;;;;0.40;0.20;;;;;;;14.11;100.00;95763.81;5113966;28;20496;-50
2022/05/21 05:02:37;;;;;;;0.63;0.63;;;;;;;14.12;100.00;95756.59;5113273;28;20493;-51
2022/05/21 05:05:06;;;;;;;1.43;1.23;;;;;;;14.38;98.89;95766.00;5113428;28;20994;-51
2022/05/21 05:07:35;;;;;;;0.40;0.30;;;;;;;14.65;95.57;95755.56;5113418;28;20423;-51
2022/05/21 05:10:04;;;;;;;0.40;0.30;;;;;;;14.94;91.68;95758.19;5113650;28;20515;-51
2022/05/21 05:12:33;;;;;;;0.33;0.23;;;;;;;14.18;94.45;95752.81;5113221;28;20430;-51
2022/05/21 05:15:03;;;;;;;0.40;0.30;;;;;;;14.76;92.80;95766.94;5113244;27;20914;-51
2022/05/21 05:17:32;;;;;;;2.10;0.47;;;;;;;14.86;90.65;95754.28;5112757;28;20502;-51
2022/05/21 05:20:01;;;;;;;0.43;0.33;;;;;;;15.34;86.40;95764.88;5113281;28;20541;-53
2022/05/21 05:22:29;;;;;;;0.40;0.40;;;;;;;15.49;85.35;95767.38;5113005;28;20435;-51
2022/05/21 05:25:04;;;;;;;0.67;0.67;;;;;;;15.90;81.89;95763.00;5112921;28;20513;-51
2022/05/21 05:27:33;;;;;;;0.40;0.30;;;;;;;16.19;77.26;95744.88;5113019;28;20501;-51
2022/05/21 05:30:03;;;;;;;0.40;0.23;;;;;;;16.38;75.85;95756.31;5112935;28;20435;-51
2022/05/21 05:32:32;;;;;;;0.60;0.60;;;;;;;16.63;73.59;95760.44;5113126;28;20423;-51
2022/05/21 05:35:01;;;;;;;1.63;0.67;;;;;;;15.76;75.19;95647.25;5113117;28;20424;-51
2022/05/21 05:37:29;;;;;;;0.70;0.70;;;;;;;16.68;72.28;95760.34;5113073;28;20428;-52
2022/05/21 05:39:58;;;;;;;0.40;0.30;;;;;;;16.83;69.88;95709.19;5111957;28;20524;-52
2022/05/21 05:42:27;;;;;;;0.40;0.30;;;;;;;16.96;65.59;95694.19;5113065;28;20423;-52
2022/05/21 05:44:56;;;;;;;0.40;0.20;;;;;;;17.47;64.11;95742.94;5112976;28;20428;-52
2022/05/21 05:47:27;;;;;;;0.60;0.60;;;;;;;17.39;64.67;95758.91;5112601;28;20471;-52
2022/05/21 05:49:56;;;;;;;0.50;0.30;;;;;;;17.58;64.38;95757.69;5112606;28;20424;-52
2022/05/21 05:52:24;;;;;;;1.07;0.40;;;;;;;17.36;76.19;95746.91;5112514;28;20440;-51
2022/05/21 05:54:53;;;;;;;0.40;0.30;;;;;;;17.59;65.00;95739.72;5112514;28;20439;-51
2022/05/21 05:57:23;;;;;;;0.40;0.20;;;;;;;18.22;62.68;95732.31;5112787;28;20474;-52
2022/05/21 05:59:51;;;;;;;0.40;0.20;;;;;;;18.72;58.29;95721.38;5111730;28;20503;-52
2022/05/21 06:05:11;;;;;;;0.40;0.30;;;;;;;19.25;53.58;95705.09;5112380;28;20492;-51
2022/05/21 06:07:42;;;;;;;0.40;0.20;;;;;;;19.10;53.51;95649.88;5112683;28;20466;-51
2022/05/21 06:10:12;;;;;;;0.40;0.20;;;;;;;19.80;53.47;95716.03;5112278;28;20477;-51
2022/05/21 06:12:40;;;;;;;0.40;0.27;;;;;;;19.22;55.87;95711.88;5112305;28;20459;-51
2022/05/21 06:15:11;;;;;;;0.40;0.30;;;;;;;19.56;52.32;95703.06;5112547;28;20514;-50
2022/05/21 06:17:40;;;;;;;0.60;0.40;;;;;;;20.11;49.82;95697.81;5112290;28;20503;-50
2022/05/21 06:20:14;;;;;;;0.40;0.30;;;;;;;19.69;49.09;95717.47;5112429;28;20455;-49
2022/05/21 06:22:44;;;;;;;0.40;0.20;;;;;;;20.23;48.70;95706.84;5112164;28;20859;-49
2022/05/21 06:25:17;;;;;;;0.50;0.40;;;;;;;20.13;46.88;95698.28;5112070;28;20455;-49
2022/05/21 06:27:47;;;;;;;0.40;0.30;;;;;;;20.90;46.12;95700.72;5112524;28;20431;-49
2022/05/21 06:30:17;;;;;;;0.67;0.67;;;;;;;21.30;45.58;95698.47;5111149;28;20444;-49
2022/05/21 06:32:45;;;;;;;0.40;0.20;;;;;;;20.92;44.81;95703.09;5111626;28;20467;-49
2022/05/21 06:35:17;;;;;;;0.40;0.30;;;;;;;21.42;43.93;95701.22;5111298;28;20424;-49
2022/05/21 06:37:45;;;;;;;0.40;0.30;;;;;;;21.87;41.64;95680.56;5112154;28;20850;-50
2022/05/21 06:40:16;;;;;;;0.80;0.80;;;;;;;21.85;42.60;95685.53;5111918;28;20463;-49
2022/05/21 06:42:46;;;;;;;0.50;0.40;;;;;;;21.50;42.29;95697.69;5112209;28;20514;-49
2022/05/21 06:45:15;;;;;;;1.33;0.53;;;;;;;21.91;42.27;95691.47;5111967;28;20928;-50
2022/05/21 06:47:43;;;;;;;0.50;0.30;;;;;;;22.32;43.24;95667.09;5112188;28;20504;-49
2022/05/21 06:50:12;;;;;;;0.43;0.30;;;;;;;22.20;42.06;95687.88;5112479;28;20883;-49
2022/05/21 06:52:42;;;;;;;0.40;0.30;;;;;;;21.44;42.11;95675.50;5111769;28;20427;-49
2022/05/21 06:55:14;;;;;;;0.40;0.30;;;;;;;22.17;41.16;95673.13;5111823;28;20860;-49
2022/05/21 06:57:42;;;;;;;0.40;0.30;;;;;;;22.77;41.92;95667.84;5111875;28;20455;-49
2022/05/21 07:00:12;;;;;;;0.40;0.30;;;;;;;22.90;40.46;95675.94;5111775;28;20471;-49
2022/05/21 07:02:40;;;;;;;0.53;0.50;;;;;;;22.83;39.69;95651.41;5111992;28;20500;-48
2022/05/21 07:07:56;;;;;;;0.40;0.30;;;;;;;23.38;38.75;95645.41;5111718;28;20427;-48
2022/05/21 07:10:27;;;;;;;0.40;0.30;;;;;;;23.87;36.93;95622.44;5111995;28;20461;-48
2022/05/21 07:12:56;;;;;;;0.43;0.30;;;;;;;23.86;37.94;95627.03;5115441;28;20431;-48
2022/05/21 07:15:24;;;;;;;12.10;0.50;;;;;;;24.09;37.01;95650.88;5115569;28;20455;-48
2022/05/21 07:17:59;;;;;;;0.47;0.30;;;;;;;24.26;36.56;95599.09;5115471;28;20490;-48
2022/05/21 07:20:29;;;;;;;0.40;0.30;;;;;;;23.82;36.50;95641.63;5115294;28;20462;-48
2022/05/21 07:23:00;;;;;;;0.40;0.30;;;;;;;24.61;36.48;95637.91;5115502;28;20502;-50
2022/05/21 07:25:31;;;;;;;0.70;0.30;;;;;;;25.32;34.94;95632.22;5115709;28;20458;-49
2022/05/21 07:28:01;;;;;;;0.30;0.20;;;;;;;25.24;34.89;95631.28;5115166;28;20436;-49
2022/05/21 07:30:30;;;;;;;1.90;0.30;;;;;;;25.40;34.19;95636.63;5114932;28;20428;-49
2022/05/21 07:32:59;;;;;;;0.30;0.30;;;;;;;25.84;34.38;95620.91;5115392;28;20506;-49
2022/05/21 07:35:29;;;;;;;0.40;0.30;;;;;;;25.71;34.22;95635.75;5115548;28;20428;-50
2022/05/21 07:37:59;;;;;;;0.40;0.30;;;;;;;25.27;32.92;95627.84;5115120;28;20511;-50
2022/05/21 07:40:27;;;;;;;0.50;0.30;;;;;;;25.88;32.24;95610.91;5115190;28;20523;-50
2022/05/21 07:43:09;;;;;;;0.40;0.37;;;;;;;26.37;32.02;95611.81;5115058;28;20510;-51
2022/05/21 07:45:39;;;;;;;0.40;0.30;;;;;;;27.15;31.50;95609.56;5114569;28;20431;-51
2022/05/21 07:48:10;;;;;;;0.40;0.30;;;;;;;26.77;31.98;95602.38;5114845;28;20439;-51
2022/05/21 07:50:40;;;;;;;0.40;0.30;;;;;;;27.14;31.64;95597.88;5114941;28;20445;-51
2022/05/21 07:53:14;;;;;;;0.40;0.37;;;;;;;26.60;30.23;95602.84;5114802;28;20428;-51
2022/05/21 07:55:44;;;;;;;0.60;0.60;;;;;;;26.67;29.57;95602.97;5115282;28;20412;-52
2022/05/21 07:58:12;;;;;;;0.30;0.30;;;;;;;27.57;28.97;95591.88;5114758;28;20424;-52
2022/05/21 08:00:41;;;;;;;0.40;0.30;;;;;;;27.74;29.29;95574.16;5114527;28;20528;-52
2022/05/21 08:03:10;;;;;;;0.30;0.30;;;;;;;27.82;27.49;95573.09;5114989;28;20496;-52
2022/05/21 08:05:40;;;;;;;0.40;0.30;;;;;;;28.46;28.54;95571.00;5114687;28;20428;-52
2022/05/21 08:08:09;;;;;;;0.60;0.40;;;;;;;28.76;26.83;95555.28;5114688;28;20476;-52
2022/05/21 08:10:42;;;;;;;0.37;0.30;;;;;;;29.05;26.95;95558.97;5114069;28;20423;-52
2022/05/21 08:13:11;;;;;;;0.30;0.20;;;;;;;29.18;26.29;95557.47;5114379;28;20451;-52
2022/05/21 08:15:40;;;;;;;0.50;0.33;;;;;;;29.37;27.67;95554.50;5114230;28;20423;-52
2022/05/21 08:18:08;;;;;;;0.40;0.30;;;;;;;29.18;28.02;95547.34;5114338;28;20514;-52
2022/05/21 08:20:39;;;;;;;0.30;0.30;;;;;;;29.38;26.06;95517.81;5114142;28;20451;-52
2022/05/21 08:28:45;;;;;;;0.40;0.30;;;;;;;29.27;25.93;95534.13;5114490;28;20955;-51
2022/05/21 08:31:13;;;;;;;0.40;0.30;;;;;;;29.54;27.27;95513.59;5114218;28;20455;-52
2022/05/21 08:33:42;;;;;;;0.47;0.40;;;;;;;30.17;26.38;95520.38;5114471;28;20423;-51
2022/05/21 08:36:10;;;;;;;0.37;0.27;;;;;;;29.85;25.69;95522.28;5114014;28;20424;-51
2022/05/21 08:38:46;;;;;;;0.40;0.30;;;;;;;30.35;25.10;95496.56;5114409;28;20422;-51
2022/05/21 08:41:21;;;;;;;0.40;0.30;;;;;;;30.36;25.02;95498.13;5113757;28;20520;-49
2022/05/21 08:44:00;;;;;;;0.50;0.30;;;;;;;30.46;25.65;95494.59;5113926;28;20947;-50
2022/05/21 08:46:40;;;;;;;0.40;0.30;;;;;;;30.69;24.87;95494.19;5113885;28;21006;-50
2022/05/21 08:49:21;;;;;;;1.27;0.30;;;;;;;31.11;24.28;95452.25;5113881;28;20790;-51
2022/05/21 08:51:52;;;;;;;0.90;0.30;;;;;;;30.72;23.40;95431.25;5114210;28;20420;-51
2022/05/21 08:54:24;;;;;;;0.30;0.20;;;;;;;31.78;23.17;95480.09;5113920;28;20435;-51
2022/05/21 08:56:56;;;;;;;0.40;0.30;;;;;;;31.45;23.16;95477.94;5113774;28;20458;-51
2022/05/21 08:59:33;;;;;;;0.40;0.30;;;;;;;31.28;23.37;95476.84;5113052;28;20480;-51
2022/05/21 09:02:01;;;;;;;0.60;0.60;;;;;;;30.89;23.61;95465.19;5113361;28;20496;-51
2022/05/21 09:04:31;;;;;;;0.40;0.30;;;;;;;31.49;23.24;95461.50;5113391;28;20462;-51
2022/05/21 09:07:02;;;;;;;0.50;0.47;;;;;;;31.66;24.46;95430.47;5113424;28;20913;-51
2022/05/21 09:09:47;;;;;;;2.83;0.80;;;;;;;31.52;24.28;95453.28;5113262;28;20465;-51
2022/05/21 09:12:19;;;;;;;0.30;0.20;;;;;;;32.12;22.69;95452.88;5112974;27;20471;-51
2022/05/21 09:14:53;;;;;;;0.30;0.20;;;;;;;32.22;22.88;95457.50;5113412;28;20932;-51
2022/05/21 09:17:25;;;;;;;0.40;0.30;;;;;;;32.23;23.34;95450.81;5113068;28;20966;-51
2022/05/21 09:19:57;;;;;;;0.40;0.30;;;;;;;31.79;25.40;95434.28;5113011;28;20491;-52
2022/05/21 09:22:32;;;;;;;0.30;0.20;;;;;;;31.64;23.97;95454.75;5113027;28;20509;-52
2022/05/21 09:25:20;;;;;;;0.40;0.30;;;;;;;31.24;23.46;95440.47;5113154;28;20437;-52
2022/05/21 09:28:02;;;;;;;0.40;0.30;;;;;;;30.66;24.29;95301.47;5113318;28;20859;-51
2022/05/21 09:30:32;;;;;;;0.50;0.50;;;;;;;32.16;23.00;95437.16;5113462;28;20439;-52
2022/05/21 09:33:02;;;;;;;0.30;0.30;;;;;;;32.33;23.28;95397.84;5113269;28;20419;-51
2022/05/21 09:35:33;;;;;;;0.40;0.30;;;;;;;33.35;22.34;95428.84;5111615;28;20451;-49
2022/05/21 09:38:14;;;;;;;0.40;0.30;;;;;;;33.30;21.90;95426.56;5112886;28;20483;-52
2022/05/21 09:40:42;;;;;;;0.30;0.30;;;;;;;32.92;23.17;95422.31;5112308;28;20423;-51
2022/05/21 09:46:20;;;;;;;0.40;0.30;;;;;;;32.70;21.86;95302.97;5112979;28;20537;-51
2022/05/21 09:48:49;;;;;;;0.40;0.30;;;;;;;33.88;21.16;95381.38;5112852;28;21004;-57
2022/05/21 09:51:27;;;;;;;0.40;0.30;;;;;;;34.25;20.96;95397.69;5112492;28;20419;-57
2022/05/21 09:53:56;;;;;;;0.40;0.30;;;;;;;34.62;20.41;95391.13;5112470;28;20501;-57
2022/05/21 09:56:27;;;;;;;1.13;0.50;;;;;;;34.24;20.98;95379.63;5112752;28;20474;-57
2022/05/21 09:59:13;;;;;;;0.30;0.30;;;;;;;34.98;21.30;95371.94;5112293;28;20454;-58
2022/05/21 10:01:44;;;;;;;0.40;0.30;;;;;;;35.21;19.81;95362.81;5112277;28;20463;-55
2022/05/21 10:04:21;;;;;;;0.40;0.30;;;;;;;34.45;21.18;95372.94;5111752;28;20782;-55
2022/05/21 10:06:54;;;;;;;0.30;0.30;;;;;;;33.58;22.37;95360.25;5111944;28;20834;-56
2022/05/21 10:12:20;;;;;;;0.30;0.20;;;;;;;33.11;23.11;95347.56;5111799;28;20482;-57
2022/05/21 10:15:00;;;;;;;0.30;0.27;;;;;;;33.03;24.18;95348.81;5112195;28;20465;-55
2022/05/21 10:17:34;;;;;;;0.37;0.27;;;;;;;33.17;23.38;95348.63;5112092;28;21019;-55
2022/05/21 10:20:14;;;;;;;0.40;0.30;;;;;;;32.36;21.96;95180.25;5112583;28;20418;-55
2022/05/21 10:22:49;;;;;;;0.40;0.30;;;;;;;31.95;22.48;95067.19;5111945;28;20903;-56
2022/05/21 10:25:19;;;;;;;0.40;0.30;;;;;;;33.47;21.74;95347.84;5112426;28;20766;-55
2022/05/21 10:28:24;;;;;;;0.60;0.40;;;;;;;34.62;21.30;95332.53;5112007;28;20431;-55
2022/05/21 10:31:26;;;;;;;0.30;0.20;;;;;;;35.44;20.89;95322.13;5112011;28;20452;-55
2022/05/21 10:34:08;;;;;;;0.30;0.20;;;;;;;35.48;21.31;95322.81;5112333;28;20519;-56
2022/05/21 10:36:56;;;;;;;0.30;0.20;;;;;;;35.60;20.87;95318.59;5112223;28;20773;-55
2022/05/21 10:39:35;;;;;;;0.50;0.30;;;;;;;34.95;20.00;95191.75;5111989;28;20440;-55
2022/05/21 10:42:24;;;;;;;0.40;0.30;;;;;;;35.67;19.85;95188.84;5111732;28;20466;-55
2022/05/21 10:45:06;;;;;;;0.50;0.40;;;;;;;35.25;20.50;95311.91;5111907;28;20909;-55
2022/05/21 10:47:52;;;;;;;0.40;0.20;;;;;;;36.02;21.22;95301.03;5115442;28;20932;-57
2022/05/21 10:50:29;;;;;;;0.30;0.30;;;;;;;36.22;19.80;95293.41;5115871;28;20978;-57
2022/05/21 10:53:08;;;;;;;0.33;0.27;;;;;;;36.18;21.63;95300.25;5115817;28;20928;-56
2022/05/21 10:55:41;;;;;;;0.30;0.30;;;;;;;36.18;19.74;95284.44;5115749;28;20462;-54
2022/05/21 10:58:28;;;;;;;0.30;0.27;;;;;;;36.02;20.48;95295.53;5116063;28;20430;-56
2022/05/21 11:01:10;;;;;;;0.30;0.20;;;;;;;36.83;20.37;95281.47;5115654;28;20427;-56
2022/05/21 11:04:07;;;;;;;0.40;0.30;;;;;;;36.61;20.04;95284.06;5114993;28;20557;-57
2022/05/21 11:07:02;;;;;;;0.30;0.20;;;;;;;36.75;21.17;95280.91;5115453;28;20426;-57
2022/05/21 11:09:36;;;;;;;0.30;0.20;;;;;;;36.84;21.42;95269.19;5115878;28;20517;-56
2022/05/21 11:12:10;;;;;;;0.30;0.20;;;;;;;36.47;20.31;95265.16;5115623;28;20479;-56
2022/05/21 11:14:44;;;;;;;0.30;0.20;;;;;;;35.83;21.41;95266.03;5114786;28;20521;-55
2022/05/21 11:17:31;;;;;;;0.70;0.30;;;;;;;35.87;22.03;95206.03;5115536;28;20224;-55
2022/05/21 11:20:05;;;;;;;0.40;0.30;;;;;;;36.80;20.41;95260.25;5115791;27;20185;-55
2022/05/21 11:22:40;;;;;;;0.30;0.20;;;;;;;36.80;20.36;95249.97;5115462;28;20283;-56
2022/05/21 11:25:16;;;;;;;0.30;0.20;;;;;;;36.93;19.94;95238.94;5115392;28;20189;-55
2022/05/21 11:27:50;;;;;;;0.30;0.20;;;;;;;37.07;19.67;95248.78;5114910;28;20231;-55
2022/05/21 11:30:21;;;;;;;0.30;0.20;;;;;;;37.04;20.27;95242.16;5114103;28;20185;-55
2022/05/21 11:38:32;;;;;;;0.30;0.30;;;;;;;35.82;21.55;95230.63;5115104;28;20283;-55
2022/05/21 11:47:33;;;;;;;0.40;0.30;;;;;;;35.77;20.62;95228.38;5115256;28;20231;-55
2022/05/21 11:50:14;;;;;;;0.40;0.30;;;;;;;35.09;21.25;95219.00;5114940;28;20185;-55
2022/05/21 11:53:08;;;;;;;0.30;0.30;;;;;;;35.75;20.04;95211.50;5115309;28;20231;-55
2022/05/21 11:55:59;;;;;;;0.40;0.30;;;;;;;35.67;20.28;95206.16;5114908;28;20784;-55
2022/05/21 11:59:08;;;;;;;0.30;0.30;;;;;;;36.10;20.21;95208.56;5113619;28;20185;-55
2022/05/21 12:02:21;;;;;;;0.40;0.30;;;;;;;36.01;20.35;95200.16;5114819;28;20234;-55
2022/05/21 12:04:56;;;;;;;0.70;0.70;;;;;;;34.85;20.04;95201.03;5114592;28;20197;-56
2022/05/21 12:07:53;;;;;;;0.60;0.30;;;;;;;33.73;21.38;95188.38;5114957;28;20231;-55
2022/05/21 12:10:30;;;;;;;0.50;0.40;;;;;;;34.94;22.23;95190.19;5114736;28;20643;-56
2022/05/21 12:13:09;;;;;;;0.30;0.20;;;;;;;35.20;20.58;95187.66;5114662;28;20430;-57
2022/05/21 12:15:43;;;;;;;0.30;0.20;;;;;;;35.67;21.03;95150.25;5114347;28;20196;-56
2022/05/21 12:18:35;;;;;;;0.40;0.30;;;;;;;36.02;18.64;95182.41;5114465;28;20917;-56
2022/05/21 12:21:06;;;;;;;0.40;0.30;;;;;;;35.61;18.61;95168.50;5114374;28;20218;-56
2022/05/21 12:24:05;;;;;;;0.40;0.30;;;;;;;36.18;18.28;95171.28;5114321;28;20212;-56
2022/05/21 12:26:37;;;;;;;0.30;0.20;;;;;;;36.68;19.59;95167.88;5114629;28;20438;-56
2022/05/21 12:29:14;;;;;;;0.30;0.30;;;;;;;35.65;18.86;95160.91;5114650;28;20216;-56
2022/05/21 12:31:45;;;;;;;0.40;0.30;;;;;;;35.80;19.12;95156.56;5114293;28;20625;-56
2022/05/21 12:34:36;;;;;;;0.87;0.20;;;;;;;35.20;18.17;95147.09;5113972;28;20694;-56